Time;durP1;ratioP1;P1;durP2;ratioP2;P2;SDS_P1;SDS_P2;PMS_P1;PMS_P2;Temp;Humidity;BMP_temperature;BMP_pressure;BME280_temperature;BME280_humidity;BME280_pressure;Samples;Min_cycle;Max_cycle;Signal;HPM_P1;HPM_P2
2022/04/17 00:01:42;;;;;;;2.40;1.50;;;;;;;;;;5046853;28;20029;-70
2022/04/17 00:04:10;;;;;;;2.38;2.05;;;;;;;;;;5045918;28;20032;-70
2022/04/17 00:06:36;;;;;;;1.33;1.23;;;;;;;;;;5045743;28;20032;-70
2022/04/17 00:09:01;;;;;;;3.00;1.85;;;;;;;;;;5046269;28;20017;-72
2022/04/17 00:11:27;;;;;;;2.00;1.40;;;;;;;;;;5046764;28;20036;-71
2022/04/17 00:13:54;;;;;;;3.55;1.70;;;;;;;;;;5047280;28;20376;-71
2022/04/17 00:16:20;;;;;;;2.50;1.50;;;;;;;;;;5046493;28;20037;-71
2022/04/17 00:18:45;;;;;;;1.50;1.40;;;;;;;;;;5046570;28;20024;-71
2022/04/17 00:21:10;;;;;;;3.33;1.42;;;;;;;;;;5045728;28;20562;-71
2022/04/17 00:23:35;;;;;;;2.05;1.40;;;;;;;;;;5046657;28;20112;-71
2022/04/17 00:26:01;;;;;;;1.88;1.65;;;;;;;;;;5047211;28;20025;-70
2022/04/17 00:28:27;;;;;;;1.90;1.73;;;;;;;;;;5046210;28;20541;-72
2022/04/17 00:30:52;;;;;;;3.33;1.50;;;;;;;;;;5046430;28;20089;-70
2022/04/17 00:33:18;;;;;;;3.53;1.60;;;;;;;;;;5047294;28;20040;-70
2022/04/17 00:35:45;;;;;;;2.63;1.60;;;;;;;;;;5046615;28;20033;-69
2022/04/17 00:38:11;;;;;;;2.13;1.40;;;;;;;;;;5046234;28;20486;-72
2022/04/17 00:40:36;;;;;;;1.83;1.45;;;;;;;;;;5046896;28;20060;-70
2022/04/17 00:43:01;;;;;;;2.60;1.70;;;;;;;;;;5046321;28;20087;-70
2022/04/17 00:45:27;;;;;;;2.22;1.70;;;;;;;;;;5047014;28;20108;-70
2022/04/17 00:47:52;;;;;;;4.07;2.20;;;;;;;;;;5046540;28;20162;-70
2022/04/17 00:50:19;;;;;;;2.13;1.70;;;;;;;;;;5046048;28;20033;-70
2022/04/17 00:52:45;;;;;;;3.13;2.75;;;;;;;;;;5046859;28;20028;-71
2022/04/17 00:55:12;;;;;;;2.38;1.58;;;;;;;;;;5046145;28;20108;-70
2022/04/17 00:57:37;;;;;;;3.30;1.67;;;;;;;;;;5046392;28;20079;-71
2022/04/17 01:00:05;;;;;;;3.85;1.70;;;;;;;;;;5046639;28;20025;-70
2022/04/17 01:02:30;;;;;;;4.25;1.90;;;;;;;;;;5046359;28;20029;-70
2022/04/17 01:04:56;;;;;;;2.35;1.80;;;;;;;;;;5046314;28;20029;-70
2022/04/17 01:07:26;;;;;;;4.22;2.00;;;;;;;;;;5046395;28;20024;-72
2022/04/17 01:09:51;;;;;;;4.57;1.63;;;;;;;;;;5045778;28;20033;-70
2022/04/17 01:12:17;;;;;;;3.63;1.85;;;;;;;;;;5046530;28;20557;-71
2022/04/17 01:14:43;;;;;;;1.70;1.60;;;;;;;;;;5046576;28;20021;-71
2022/04/17 01:17:10;;;;;;;1.98;1.75;;;;;;;;;;5049003;28;20466;-71
2022/04/17 01:19:37;;;;;;;1.63;1.52;;;;;;;;;;5050026;28;20047;-71
2022/04/17 01:22:04;;;;;;;2.80;1.75;;;;;;;;;;5049753;28;20033;-71
2022/04/17 01:27:15;;;;;;;2.55;1.38;;;;;;;;;;5049566;28;20074;-71
2022/04/17 01:29:40;;;;;;;2.60;1.90;;;;;;;;;;5049696;28;20505;-70
2022/04/17 01:32:08;;;;;;;19.00;3.47;;;;;;;;;;5049970;28;20576;-71
2022/04/17 01:34:34;;;;;;;2.42;1.63;;;;;;;;;;5048102;28;20075;-71
2022/04/17 01:37:01;;;;;;;2.08;1.52;;;;;;;;;;5049971;28;20039;-71
2022/04/17 01:39:27;;;;;;;3.63;1.75;;;;;;;;;;5049425;28;20442;-71
2022/04/17 01:41:54;;;;;;;1.95;1.50;;;;;;;;;;5049363;28;20025;-71
2022/04/17 01:44:20;;;;;;;2.03;1.60;;;;;;;;;;5049877;28;20024;-72
2022/04/17 01:46:46;;;;;;;2.58;1.75;;;;;;;;;;5049435;28;20029;-72
2022/04/17 01:49:13;;;;;;;2.00;1.77;;;;;;;;;;5049441;28;20025;-71
2022/04/17 01:51:39;;;;;;;3.40;1.75;;;;;;;;;;5049930;28;20028;-71
2022/04/17 01:54:25;;;;;;;3.22;1.58;;;;;;;;;;5047872;28;20025;-71
2022/04/17 01:56:51;;;;;;;1.60;1.50;;;;;;;;;;5049564;28;20048;-71
2022/04/17 01:59:18;;;;;;;2.35;1.80;;;;;;;;;;5048806;28;20467;-71
2022/04/17 02:01:44;;;;;;;2.20;1.50;;;;;;;;;;5048775;28;20163;-71
2022/04/17 02:04:10;;;;;;;5.38;1.85;;;;;;;;;;5049787;28;20104;-71
2022/04/17 02:06:39;;;;;;;1.90;1.60;;;;;;;;;;5048630;28;20118;-71
2022/04/17 02:09:07;;;;;;;2.78;1.63;;;;;;;;;;5048746;28;20031;-71
2022/04/17 02:11:33;;;;;;;1.90;1.52;;;;;;;;;;5049588;28;20031;-71
2022/04/17 02:13:58;;;;;;;2.10;1.75;;;;;;;;;;5048594;28;20120;-71
2022/04/17 02:16:24;;;;;;;1.70;1.50;;;;;;;;;;5049168;28;20040;-72
2022/04/17 02:18:49;;;;;;;1.77;1.67;;;;;;;;;;5049019;28;20025;-72
2022/04/17 02:21:16;;;;;;;5.03;1.80;;;;;;;;;;5048724;28;20025;-71
2022/04/17 02:23:42;;;;;;;2.30;1.90;;;;;;;;;;5049243;28;20103;-72
2022/04/17 02:26:09;;;;;;;3.63;2.00;;;;;;;;;;5048715;28;20029;-71
2022/04/17 02:28:40;;;;;;;1.90;1.70;;;;;;;;;;5047128;28;20476;-71
2022/04/17 02:31:06;;;;;;;2.85;2.08;;;;;;;;;;5047895;28;20021;-72
2022/04/17 02:33:32;;;;;;;2.40;1.70;;;;;;;;;;5049119;28;20199;-71
2022/04/17 02:35:58;;;;;;;3.45;1.88;;;;;;;;;;5048244;28;20471;-71
2022/04/17 02:38:23;;;;;;;2.05;1.80;;;;;;;;;;5048952;28;20025;-71
2022/04/17 02:40:48;;;;;;;2.10;1.83;;;;;;;;;;5070128;22;20041;-73
2022/04/17 02:43:14;;;;;;;3.15;2.00;;;;;;;;;;5048118;28;20075;-75
2022/04/17 02:45:39;;;;;;;2.10;1.85;;;;;;;;;;5048763;28;20102;-73
2022/04/17 02:48:05;;;;;;;2.25;2.05;;;;;;;;;;5047761;28;20021;-74
2022/04/17 02:50:30;;;;;;;3.03;2.10;;;;;;;;;;5048592;28;20474;-73
2022/04/17 02:52:55;;;;;;;4.93;1.88;;;;;;;;;;5048256;28;20033;-72
2022/04/17 02:55:21;;;;;;;2.17;1.60;;;;;;;;;;5047937;28;20017;-75
2022/04/17 02:57:46;;;;;;;3.20;1.67;;;;;;;;;;5048379;28;20040;-73
2022/04/17 03:00:12;;;;;;;2.28;1.77;;;;;;;;;;5048078;28;20083;-72
2022/04/17 03:05:39;;;;;;;2.67;1.70;;;;;;;;;;5047683;28;20067;-72
2022/04/17 03:08:06;;;;;;;3.00;2.13;;;;;;;;;;5046382;28;20028;-72
2022/04/17 03:10:32;;;;;;;4.78;2.10;;;;;;;;;;5048217;28;20028;-75
2022/04/17 03:12:58;;;;;;;2.80;2.20;;;;;;;;;;5048093;28;20616;-72
2022/04/17 03:15:23;;;;;;;2.55;2.33;;;;;;;;;;5047910;28;20413;-72
2022/04/17 03:17:49;;;;;;;2.70;1.85;;;;;;;;;;5048095;28;20035;-72
2022/04/17 03:20:14;;;;;;;3.35;1.90;;;;;;;;;;5047409;28;20059;-73
2022/04/17 03:22:41;;;;;;;2.08;1.70;;;;;;;;;;5047557;28;20131;-76
2022/04/17 03:25:07;;;;;;;2.03;1.83;;;;;;;;;;5046505;28;20117;-73
2022/04/17 03:27:32;;;;;;;2.00;1.80;;;;;;;;;;5047743;28;20531;-73
2022/04/17 03:29:58;;;;;;;3.13;2.08;;;;;;;;;;5047734;28;20024;-74
2022/04/17 03:32:23;;;;;;;2.60;1.90;;;;;;;;;;5047996;28;20083;-73
2022/04/17 03:34:49;;;;;;;3.15;1.75;;;;;;;;;;5047599;28;20060;-74
2022/04/17 03:37:14;;;;;;;2.70;1.70;;;;;;;;;;5047678;28;20106;-72
2022/04/17 03:39:40;;;;;;;2.97;2.17;;;;;;;;;;5046504;28;20352;-73
2022/04/17 03:42:06;;;;;;;2.03;1.75;;;;;;;;;;5047460;28;20025;-75
2022/04/17 03:44:32;;;;;;;2.05;1.80;;;;;;;;;;5047397;28;20036;-73
2022/04/17 03:46:57;;;;;;;3.13;1.70;;;;;;;;;;5046838;28;20048;-73
2022/04/17 03:49:22;;;;;;;2.80;1.90;;;;;;;;;;5047454;28;20033;-73
2022/04/17 03:51:48;;;;;;;3.50;2.03;;;;;;;;;;5046877;28;20021;-73
2022/04/17 03:54:13;;;;;;;2.92;2.03;;;;;;;;;;5046550;28;20020;-74
2022/04/17 03:56:38;;;;;;;2.25;2.05;;;;;;;;;;5047647;28;20029;-73
2022/04/17 03:59:04;;;;;;;1.92;1.80;;;;;;;;;;5046280;28;20040;-73
2022/04/17 04:01:29;;;;;;;2.47;2.05;;;;;;;;;;5047217;28;20021;-72
2022/04/17 04:03:55;;;;;;;2.90;2.60;;;;;;;;;;5046831;28;20195;-72
2022/04/17 04:06:21;;;;;;;4.07;2.30;;;;;;;;;;5046502;28;20028;-73
2022/04/17 04:08:50;;;;;;;3.17;2.05;;;;;;;;;;5046523;28;20486;-73
2022/04/17 04:11:16;;;;;;;2.30;2.10;;;;;;;;;;5047005;28;20025;-72
2022/04/17 04:13:42;;;;;;;3.22;2.35;;;;;;;;;;5046546;28;20351;-73
2022/04/17 04:16:07;;;;;;;2.53;1.95;;;;;;;;;;5045917;28;20074;-70
2022/04/17 04:18:33;;;;;;;2.05;1.80;;;;;;;;;;5046365;28;20051;-72
2022/04/17 04:20:58;;;;;;;2.47;1.70;;;;;;;;;;5046803;28;20025;-76
2022/04/17 04:23:23;;;;;;;2.67;1.92;;;;;;;;;;5046755;28;20083;-73
2022/04/17 04:25:49;;;;;;;2.30;2.10;;;;;;;;;;5046601;28;20029;-72
2022/04/17 04:30:57;;;;;;;2.03;1.80;;;;;;;;;;5046721;28;20035;-74
2022/04/17 04:33:23;;;;;;;3.47;1.92;;;;;;;;;;5046753;28;20104;-73
2022/04/17 04:35:48;;;;;;;2.35;2.08;;;;;;;;;;5045979;28;20370;-72
2022/04/17 04:38:13;;;;;;;2.13;1.92;;;;;;;;;;5046991;28;20021;-72
2022/04/17 04:40:39;;;;;;;3.17;1.90;;;;;;;;;;5046535;28;20039;-71
2022/04/17 04:43:04;;;;;;;2.10;1.90;;;;;;;;;;5046294;28;20025;-74
2022/04/17 04:48:15;;;;;;;3.45;1.70;;;;;;;;;;5046465;28;20078;-74
2022/04/17 04:50:40;;;;;;;4.53;2.42;;;;;;;;;;5047708;28;20025;-72
2022/04/17 04:53:06;;;;;;;3.30;1.85;;;;;;;;;;5050446;28;20422;-73
2022/04/17 04:55:32;;;;;;;2.75;2.40;;;;;;;;;;5050897;28;20013;-73
2022/04/17 04:57:57;;;;;;;2.65;2.03;;;;;;;;;;5050061;28;20493;-72
2022/04/17 05:00:23;;;;;;;2.22;2.03;;;;;;;;;;5050387;28;20021;-73
2022/04/17 05:02:48;;;;;;;2.97;2.00;;;;;;;;;;5050130;28;20067;-73
2022/04/17 05:05:13;;;;;;;3.70;2.10;;;;;;;;;;5050019;28;20115;-73
2022/04/17 05:07:39;;;;;;;3.65;1.98;;;;;;;;;;5050650;28;20422;-73
2022/04/17 05:10:06;;;;;;;2.53;2.22;;;;;;;;;;5049609;28;20041;-72
2022/04/17 05:12:31;;;;;;;2.38;2.17;;;;;;;;;;5050324;28;20078;-74
2022/04/17 05:14:57;;;;;;;3.15;2.38;;;;;;;;;;5050824;28;20025;-73
2022/04/17 05:17:23;;;;;;;2.97;2.20;;;;;;;;;;5050022;28;20090;-73
2022/04/17 05:19:49;;;;;;;2.60;1.88;;;;;;;;;;5049630;28;20035;-74
2022/04/17 05:22:17;;;;;;;2.72;2.25;;;;;;;;;;5050410;28;20021;-73
2022/04/17 05:24:44;;;;;;;2.60;2.25;;;;;;;;;;5049083;28;20033;-73
2022/04/17 05:27:12;;;;;;;2.10;1.90;;;;;;;;;;5049857;28;20425;-75
2022/04/17 05:29:38;;;;;;;2.78;2.05;;;;;;;;;;5049532;28;20016;-72
2022/04/17 05:32:03;;;;;;;2.88;2.30;;;;;;;;;;5049511;28;20086;-73
2022/04/17 05:34:29;;;;;;;4.43;2.72;;;;;;;;;;5050004;28;20394;-75
2022/04/17 05:36:55;;;;;;;2.45;2.20;;;;;;;;;;5049262;28;20089;-73
2022/04/17 05:39:20;;;;;;;4.32;2.58;;;;;;;;;;5048863;28;20397;-72
2022/04/17 05:41:46;;;;;;;3.05;2.38;;;;;;;;;;5049844;28;20029;-73
2022/04/17 05:44:12;;;;;;;4.15;2.55;;;;;;;;;;5049046;28;20112;-73
2022/04/17 05:46:39;;;;;;;2.90;2.08;;;;;;;;;;5049263;28;20662;-74
2022/04/17 05:49:06;;;;;;;3.50;2.45;;;;;;;;;;5049390;28;20032;-73
2022/04/17 05:51:36;;;;;;;2.60;2.10;;;;;;;;;;5049197;28;20394;-73
2022/04/17 05:54:05;;;;;;;2.22;2.03;;;;;;;;;;5048706;28;20121;-75
2022/04/17 05:56:31;;;;;;;2.75;1.90;;;;;;;;;;5049663;28;20029;-73
2022/04/17 05:58:57;;;;;;;3.60;2.42;;;;;;;;;;5050213;28;20066;-72
2022/04/17 06:01:22;;;;;;;3.13;2.40;;;;;;;;;;5046305;28;20029;-71
2022/04/17 06:03:49;;;;;;;3.05;2.20;;;;;;;;;;5050797;28;20032;-72
2022/04/17 06:06:15;;;;;;;4.10;2.28;;;;;;;;;;5052072;28;20032;-73
2022/04/17 06:08:40;;;;;;;3.15;2.65;;;;;;;;;;5051918;28;20025;-73
2022/04/17 06:11:06;;;;;;;4.88;3.00;;;;;;;;;;5051804;28;20032;-74
2022/04/17 06:13:31;;;;;;;3.08;2.33;;;;;;;;;;5051705;28;20070;-72
2022/04/17 06:15:56;;;;;;;3.40;2.00;;;;;;;;;;5051521;28;20399;-71
2022/04/17 06:18:21;;;;;;;5.00;2.15;;;;;;;;;;5051575;28;20074;-73
2022/04/17 06:20:47;;;;;;;3.88;2.47;;;;;;;;;;5052065;28;20017;-72
2022/04/17 06:23:13;;;;;;;4.10;2.35;;;;;;;;;;5051737;28;20021;-74
2022/04/17 06:25:38;;;;;;;2.33;1.80;;;;;;;;;;5051712;28;20145;-75
2022/04/17 06:28:03;;;;;;;2.50;2.13;;;;;;;;;;5051266;28;20505;-73
2022/04/17 06:30:29;;;;;;;2.33;2.10;;;;;;;;;;5050570;28;20509;-73
2022/04/17 06:32:54;;;;;;;4.07;1.88;;;;;;;;;;5050782;28;20160;-74
2022/04/17 06:35:20;;;;;;;2.38;2.00;;;;;;;;;;5051749;28;20473;-74
2022/04/17 06:37:49;;;;;;;3.42;2.50;;;;;;;;;;5051945;28;20029;-73
2022/04/17 06:40:16;;;;;;;1.88;1.73;;;;;;;;;;5051205;28;20033;-72
2022/04/17 06:42:43;;;;;;;2.20;1.92;;;;;;;;;;5051372;28;20021;-73
2022/04/17 06:45:09;;;;;;;3.97;2.42;;;;;;;;;;5050343;28;20036;-73
2022/04/17 06:47:34;;;;;;;2.03;1.60;;;;;;;;;;5050074;28;20483;-74
2022/04/17 06:49:59;;;;;;;3.75;2.05;;;;;;;;;;5049590;28;20403;-74
2022/04/17 06:52:24;;;;;;;3.17;1.60;;;;;;;;;;5050744;28;20025;-73
2022/04/17 06:54:50;;;;;;;2.53;1.45;;;;;;;;;;5050340;28;20070;-73
2022/04/17 06:57:15;;;;;;;2.15;1.60;;;;;;;;;;5050496;28;20021;-74
2022/04/17 06:59:41;;;;;;;2.45;1.65;;;;;;;;;;5050941;28;20100;-73
2022/04/17 07:02:06;;;;;;;4.00;1.90;;;;;;;;;;5051518;28;20029;-74
2022/04/17 07:04:32;;;;;;;3.60;1.88;;;;;;;;;;5051643;28;20087;-73
2022/04/17 07:06:57;;;;;;;4.25;2.30;;;;;;;;;;5051426;28;20029;-73
2022/04/17 07:09:22;;;;;;;3.30;1.70;;;;;;;;;;5050959;28;20390;-73
2022/04/17 07:11:48;;;;;;;2.65;1.65;;;;;;;;;;5050980;28;20029;-73
2022/04/17 07:14:14;;;;;;;2.25;1.65;;;;;;;;;;5049174;28;20064;-73
2022/04/17 07:16:41;;;;;;;2.72;2.50;;;;;;;;;;5051001;28;20021;-74
2022/04/17 07:19:06;;;;;;;2.67;1.70;;;;;;;;;;5050633;28;20054;-74
2022/04/17 07:21:32;;;;;;;1.70;1.42;;;;;;;;;;5050735;28;20310;-74
2022/04/17 07:23:57;;;;;;;2.58;2.10;;;;;;;;;;5050762;28;20109;-73
2022/04/17 07:26:23;;;;;;;2.85;1.75;;;;;;;;;;5051187;28;20045;-74
2022/04/17 07:28:49;;;;;;;3.42;1.75;;;;;;;;;;5050459;28;20028;-73
2022/04/17 07:31:14;;;;;;;3.25;1.90;;;;;;;;;;5050801;28;20033;-73
2022/04/17 07:33:39;;;;;;;3.42;1.80;;;;;;;;;;5051163;28;20032;-73
2022/04/17 07:36:05;;;;;;;3.58;1.77;;;;;;;;;;5050689;28;20104;-72
2022/04/17 07:38:30;;;;;;;2.38;1.50;;;;;;;;;;5050675;28;20026;-73
2022/04/17 07:40:56;;;;;;;2.50;1.90;;;;;;;;;;5050368;28;20028;-74
2022/04/17 07:43:22;;;;;;;2.92;1.90;;;;;;;;;;5050609;28;20025;-74
2022/04/17 07:45:47;;;;;;;2.28;1.63;;;;;;;;;;5050439;28;20027;-73
2022/04/17 07:48:13;;;;;;;3.28;1.73;;;;;;;;;;5050371;28;20372;-73
2022/04/17 07:50:38;;;;;;;1.60;1.50;;;;;;;;;;5050537;28;20056;-74
2022/04/17 07:53:04;;;;;;;3.60;1.70;;;;;;;;;;5050502;28;20112;-74
2022/04/17 07:55:29;;;;;;;2.67;1.65;;;;;;;;;;5050415;28;20029;-73
2022/04/17 07:57:56;;;;;;;2.05;1.63;;;;;;;;;;5050672;28;20033;-73
2022/04/17 08:00:23;;;;;;;2.08;1.88;;;;;;;;;;5050564;28;20433;-74
2022/04/17 08:03:08;;;;;;;1.75;1.55;;;;;;;;;;5050408;28;20052;-73
2022/04/17 08:05:40;;;;;;;2.75;1.70;;;;;;;;;;5050227;28;20048;-72
2022/04/17 08:08:10;;;;;;;2.80;1.40;;;;;;;;;;5046387;28;20025;-72
2022/04/17 08:10:37;;;;;;;2.03;1.63;;;;;;;;;;5048402;28;20433;-73
2022/04/17 08:13:03;;;;;;;2.00;1.50;;;;;;;;;;5048517;28;20047;-74
2022/04/17 08:15:29;;;;;;;2.15;1.60;;;;;;;;;;5050431;28;20124;-73
2022/04/17 08:17:54;;;;;;;1.95;1.67;;;;;;;;;;5050398;28;20587;-74
2022/04/17 08:20:20;;;;;;;1.50;1.40;;;;;;;;;;5049029;28;20017;-74
2022/04/17 08:22:46;;;;;;;2.78;1.52;;;;;;;;;;5050349;28;20033;-74
2022/04/17 08:25:11;;;;;;;1.60;1.10;;;;;;;;;;5049335;28;20035;-72
2022/04/17 08:27:50;;;;;;;1.70;1.33;;;;;;;;;;5050325;28;20108;-75
2022/04/17 08:30:20;;;;;;;1.67;1.40;;;;;;;;;;5050013;28;20501;-76
2022/04/17 08:32:46;;;;;;;4.20;1.30;;;;;;;;;;5050441;28;20070;-75
2022/04/17 08:35:11;;;;;;;2.40;1.30;;;;;;;;;;5050210;28;20478;-75
2022/04/17 08:37:36;;;;;;;2.10;1.58;;;;;;;;;;5049978;28;20559;-74
2022/04/17 08:40:03;;;;;;;1.60;1.50;;;;;;;;;;5050145;28;20032;-73
2022/04/17 08:42:31;;;;;;;1.58;1.40;;;;;;;;;;5049997;28;20025;-74
2022/04/17 08:44:56;;;;;;;2.25;1.58;;;;;;;;;;5050285;28;20467;-75
2022/04/17 08:47:21;;;;;;;2.17;1.38;;;;;;;;;;5050071;28;20079;-75
2022/04/17 08:49:47;;;;;;;2.20;1.20;;;;;;;;;;5049500;28;20021;-74
2022/04/17 08:52:15;;;;;;;2.10;1.20;;;;;;;;;;5050122;28;20025;-73
2022/04/17 08:54:46;;;;;;;1.77;1.35;;;;;;;;;;5050471;28;20073;-74
2022/04/17 08:57:11;;;;;;;3.17;2.03;;;;;;;;;;5049968;28;20032;-75
2022/04/17 08:59:37;;;;;;;1.58;1.48;;;;;;;;;;5049837;28;20025;-77
2022/04/17 09:02:08;;;;;;;2.67;1.48;;;;;;;;;;5049809;28;20021;-76
2022/04/17 09:04:33;;;;;;;1.77;1.60;;;;;;;;;;5049925;28;20040;-75
2022/04/17 09:07:00;;;;;;;2.28;1.50;;;;;;;;;;5050287;28;20032;-75
2022/04/17 09:09:25;;;;;;;3.03;1.40;;;;;;;;;;5047027;28;20060;-76
2022/04/17 09:11:54;;;;;;;1.40;1.27;;;;;;;;;;5034920;28;20069;-76
2022/04/17 09:14:20;;;;;;;2.60;1.35;;;;;;;;;;5030244;28;20104;-76
2022/04/17 09:16:49;;;;;;;2.92;1.90;;;;;;;;;;5029970;28;20151;-75
2022/04/17 09:19:17;;;;;;;1.98;1.60;;;;;;;;;;5029651;28;20029;-74
2022/04/17 09:21:42;;;;;;;1.90;1.60;;;;;;;;;;5029952;28;20033;-76
2022/04/17 09:24:18;;;;;;;2.92;2.53;;;;;;;;;;5029851;28;20025;-74
2022/04/17 09:27:02;;;;;;;2.80;1.48;;;;;;;;;;5029843;28;20100;-75
2022/04/17 09:29:30;;;;;;;1.52;1.20;;;;;;;;;;5029082;28;20021;-75
2022/04/17 09:32:07;;;;;;;2.40;1.55;;;;;;;;;;5029713;28;20026;-74
2022/04/17 09:34:46;;;;;;;4.57;1.73;;;;;;;;;;5029615;28;20029;-75
2022/04/17 09:37:13;;;;;;;2.17;1.63;;;;;;;;;;5031503;28;20048;-76
2022/04/17 09:39:39;;;;;;;1.75;1.30;;;;;;;;;;5033114;28;20036;-74
2022/04/17 09:42:05;;;;;;;1.80;1.48;;;;;;;;;;5033121;28;20109;-75
2022/04/17 09:44:46;;;;;;;2.33;1.23;;;;;;;;;;5033616;28;20044;-73
2022/04/17 09:47:16;;;;;;;1.23;1.10;;;;;;;;;;5033773;28;20538;-76
2022/04/17 09:50:00;;;;;;;2.05;1.10;;;;;;;;;;5033326;28;20057;-75
2022/04/17 09:52:46;;;;;;;2.55;1.15;;;;;;;;;;5033256;28;20501;-77
2022/04/17 09:55:12;;;;;;;2.28;1.10;;;;;;;;;;5033127;28;20388;-74
2022/04/17 09:57:39;;;;;;;1.90;1.45;;;;;;;;;;5032972;28;20491;-74
2022/04/17 10:00:11;;;;;;;2.63;1.75;;;;;;;;;;5032605;28;20394;-74
2022/04/17 10:02:38;;;;;;;1.58;1.42;;;;;;;;;;5031802;28;20022;-75
2022/04/17 10:05:05;;;;;;;1.35;1.20;;;;;;;;;;5032426;28;20032;-74
2022/04/17 10:07:31;;;;;;;1.13;1.02;;;;;;;;;;5032189;28;20056;-74
2022/04/17 10:09:57;;;;;;;2.85;1.33;;;;;;;;;;5036440;28;20063;-72
2022/04/17 10:12:24;;;;;;;2.00;1.10;;;;;;;;;;5046431;28;20048;-74
2022/04/17 10:14:52;;;;;;;1.30;1.15;;;;;;;;;;5052725;28;20012;-76
2022/04/17 10:17:21;;;;;;;1.75;1.20;;;;;;;;;;5052545;28;20044;-75
2022/04/17 10:19:48;;;;;;;1.67;1.10;;;;;;;;;;5052362;28;20029;-74
2022/04/17 10:22:18;;;;;;;1.77;1.17;;;;;;;;;;5052202;28;20054;-75
2022/04/17 10:24:51;;;;;;;2.20;1.33;;;;;;;;;;5052422;28;20103;-75
2022/04/17 10:27:20;;;;;;;1.48;1.30;;;;;;;;;;5052539;28;20029;-76
2022/04/17 10:30:07;;;;;;;2.35;1.88;;;;;;;;;;5052123;28;20028;-74
2022/04/17 10:32:33;;;;;;;3.25;1.13;;;;;;;;;;5052357;28;20095;-76
2022/04/17 10:35:20;;;;;;;2.20;1.15;;;;;;;;;;5052294;28;20104;-74
2022/04/17 10:38:16;;;;;;;1.60;1.10;;;;;;;;;;5051831;28;20029;-74
2022/04/17 10:40:59;;;;;;;2.15;1.85;;;;;;;;;;5052288;28;20091;-74
2022/04/17 10:43:32;;;;;;;3.15;2.22;;;;;;;;;;5052330;28;20029;-73
2022/04/17 10:46:11;;;;;;;2.22;1.10;;;;;;;;;;5051984;28;20025;-74
2022/04/17 10:48:49;;;;;;;1.65;1.30;;;;;;;;;;5050855;28;20052;-74
2022/04/17 10:51:25;;;;;;;1.70;1.42;;;;;;;;;;5052153;28;20478;-74
2022/04/17 10:54:09;;;;;;;2.38;1.40;;;;;;;;;;5051972;28;20020;-74
2022/04/17 10:56:53;;;;;;;1.85;1.02;;;;;;;;;;5052007;28;20463;-75
2022/04/17 10:59:21;;;;;;;1.67;1.00;;;;;;;;;;5051357;28;20488;-74
2022/04/17 11:01:51;;;;;;;1.70;0.93;;;;;;;;;;5051855;28;20056;-73
2022/04/17 11:04:53;;;;;;;2.13;1.20;;;;;;;;;;5051115;28;20534;-74
2022/04/17 11:07:23;;;;;;;0.90;0.90;;;;;;;;;;5051846;28;20510;-72
2022/04/17 11:10:07;;;;;;;2.20;1.10;;;;;;;;;;5051412;28;20028;-73
2022/04/17 11:12:46;;;;;;;1.27;0.85;;;;;;;;;;5051494;28;20514;-73
2022/04/17 11:15:11;;;;;;;1.88;0.98;;;;;;;;;;5050351;28;20017;-74
2022/04/17 11:17:39;;;;;;;1.30;0.90;;;;;;;;;;5051481;28;20039;-73
2022/04/17 11:20:07;;;;;;;1.25;0.90;;;;;;;;;;5051231;28;20040;-73
2022/04/17 11:22:34;;;;;;;1.63;1.20;;;;;;;;;;5051344;28;20032;-71
2022/04/17 11:25:06;;;;;;;1.50;0.90;;;;;;;;;;5051366;28;20036;-73
2022/04/17 11:27:31;;;;;;;1.63;1.00;;;;;;;;;;5051419;28;20094;-74
2022/04/17 11:29:57;;;;;;;0.70;0.70;;;;;;;;;;5048172;28;20067;-73
2022/04/17 11:32:31;;;;;;;1.45;1.00;;;;;;;;;;5045331;28;20032;-74
2022/04/17 11:35:00;;;;;;;2.22;0.82;;;;;;;;;;5051073;28;20025;-72
2022/04/17 11:37:30;;;;;;;1.10;0.85;;;;;;;;;;5051155;28;20051;-73
2022/04/17 11:39:57;;;;;;;2.88;1.00;;;;;;;;;;5050687;28;20029;-73
2022/04/17 11:42:28;;;;;;;1.98;0.80;;;;;;;;;;5050729;28;20370;-71
2022/04/17 11:44:59;;;;;;;2.10;1.10;;;;;;;;;;5049233;28;20033;-72
2022/04/17 11:47:25;;;;;;;1.98;1.00;;;;;;;;;;5050753;28;20033;-71
2022/04/17 11:49:50;;;;;;;2.13;0.95;;;;;;;;;;5049683;28;20021;-75
2022/04/17 11:52:17;;;;;;;1.90;0.70;;;;;;;;;;5049665;28;20025;-72
2022/04/17 11:54:44;;;;;;;2.05;0.90;;;;;;;;;;5048033;28;20511;-71
2022/04/17 11:57:11;;;;;;;1.85;1.00;;;;;;;;;;5049297;28;20056;-72
2022/04/17 11:59:49;;;;;;;1.55;0.80;;;;;;;;;;5048366;28;20025;-72
2022/04/17 12:02:17;;;;;;;2.00;1.17;;;;;;;;;;5049473;28;20052;-73
2022/04/17 12:04:43;;;;;;;1.02;0.80;;;;;;;;;;5050196;28;20122;-72
2022/04/17 12:07:10;;;;;;;1.75;0.73;;;;;;;;;;5049477;28;20519;-72
2022/04/17 12:09:36;;;;;;;1.30;1.13;;;;;;;;;;5048766;28;20060;-73
2022/04/17 12:12:01;;;;;;;1.00;0.90;;;;;;;;;;5049806;28;20051;-70
2022/04/17 12:14:30;;;;;;;1.42;1.20;;;;;;;;;;5049371;28;20032;-72
2022/04/17 12:16:56;;;;;;;2.05;1.20;;;;;;;;;;5049778;28;20025;-73
2022/04/17 12:19:22;;;;;;;1.25;1.13;;;;;;;;;;5049914;28;20413;-72
2022/04/17 12:21:48;;;;;;;1.17;1.00;;;;;;;;;;5049701;28;20031;-70
2022/04/17 12:24:14;;;;;;;2.90;1.73;;;;;;;;;;5049944;28;20497;-70
2022/04/17 12:26:40;;;;;;;1.00;0.60;;;;;;;;;;5049591;28;20036;-71
2022/04/17 12:29:06;;;;;;;0.82;0.70;;;;;;;;;;5049449;28;20075;-73
2022/04/17 12:31:33;;;;;;;1.13;0.93;;;;;;;;;;5049889;28;20017;-71
2022/04/17 12:34:14;;;;;;;3.35;1.38;;;;;;;;;;5049678;28;20025;-70
2022/04/17 12:36:42;;;;;;;1.10;0.93;;;;;;;;;;5049522;28;20025;-70
2022/04/17 12:39:08;;;;;;;1.25;1.00;;;;;;;;;;5049311;28;20090;-72
2022/04/17 12:41:48;;;;;;;1.10;1.00;;;;;;;;;;5049985;28;20025;-73
2022/04/17 12:44:13;;;;;;;1.63;0.85;;;;;;;;;;5049570;28;20104;-72
2022/04/17 12:46:47;;;;;;;1.73;0.80;;;;;;;;;;5049537;28;20461;-73
2022/04/17 12:49:15;;;;;;;0.70;0.70;;;;;;;;;;5049169;28;20480;-71
2022/04/17 12:51:53;;;;;;;0.75;0.60;;;;;;;;;;5049516;28;20020;-71
2022/04/17 12:54:19;;;;;;;0.80;0.75;;;;;;;;;;5049435;28;20040;-70
2022/04/17 12:56:44;;;;;;;0.85;0.85;;;;;;;;;;5049575;28;20549;-69
2022/04/17 12:59:11;;;;;;;1.10;0.77;;;;;;;;;;5049481;28;20254;-73
2022/04/17 13:01:37;;;;;;;0.73;0.73;;;;;;;;;;5049546;28;20033;-71
2022/04/17 13:04:19;;;;;;;1.77;0.95;;;;;;;;;;5049384;28;20396;-71
2022/04/17 13:06:45;;;;;;;0.93;0.73;;;;;;;;;;5049577;28;20025;-73
2022/04/17 13:09:18;;;;;;;0.80;0.80;;;;;;;;;;5049222;28;20044;-73
2022/04/17 13:11:47;;;;;;;1.58;0.80;;;;;;;;;;5050515;28;20029;-73
2022/04/17 13:14:13;;;;;;;1.10;0.90;;;;;;;;;;5053211;28;20060;-73
2022/04/17 13:16:48;;;;;;;1.10;0.55;;;;;;;;;;5052997;28;20087;-73
2022/04/17 13:19:13;;;;;;;1.52;0.88;;;;;;;;;;5052569;28;20029;-72
2022/04/17 13:21:39;;;;;;;1.30;0.80;;;;;;;;;;5053284;28;20112;-71
2022/04/17 13:24:04;;;;;;;1.20;0.80;;;;;;;;;;5053038;28;20040;-71
2022/04/17 13:26:30;;;;;;;1.65;0.90;;;;;;;;;;5053255;28;20070;-72
2022/04/17 13:28:55;;;;;;;0.98;0.80;;;;;;;;;;5052689;28;20093;-72
2022/04/17 13:31:21;;;;;;;2.20;1.10;;;;;;;;;;5053351;28;20271;-73
2022/04/17 13:33:46;;;;;;;2.15;0.80;;;;;;;;;;5052911;28;20021;-73
2022/04/17 13:36:11;;;;;;;1.58;0.80;;;;;;;;;;5052635;28;20475;-72
2022/04/17 13:38:37;;;;;;;1.95;0.73;;;;;;;;;;5052593;28;20108;-73
2022/04/17 13:41:04;;;;;;;0.77;0.70;;;;;;;;;;5051145;28;20024;-74
2022/04/17 13:43:30;;;;;;;0.82;0.70;;;;;;;;;;5052407;28;20528;-74
2022/04/17 13:45:56;;;;;;;0.63;0.60;;;;;;;;;;5052195;28;20028;-72
2022/04/17 13:48:21;;;;;;;1.63;0.65;;;;;;;;;;5052404;28;20032;-72
2022/04/17 13:50:47;;;;;;;0.60;0.60;;;;;;;;;;5052295;28;20398;-73
2022/04/17 13:53:12;;;;;;;0.60;0.60;;;;;;;;;;5052417;28;20033;-72
2022/04/17 13:55:38;;;;;;;0.90;0.77;;;;;;;;;;5052552;28;20478;-72
2022/04/17 13:58:03;;;;;;;1.15;0.80;;;;;;;;;;5052238;28;20024;-72
2022/04/17 14:00:28;;;;;;;0.60;0.60;;;;;;;;;;5052204;28;20459;-73
2022/04/17 14:02:54;;;;;;;1.80;0.80;;;;;;;;;;5052382;28;20032;-71
2022/04/17 14:05:19;;;;;;;0.90;0.80;;;;;;;;;;5052111;28;20029;-72
2022/04/17 14:07:46;;;;;;;0.70;0.70;;;;;;;;;;5052446;28;20072;-73
2022/04/17 14:10:11;;;;;;;1.30;1.00;;;;;;;;;;5051967;28;20029;-71
2022/04/17 14:12:38;;;;;;;0.93;0.70;;;;;;;;;;5052390;28;20036;-73
2022/04/17 14:15:05;;;;;;;1.45;0.80;;;;;;;;;;5051980;28;20032;-71
2022/04/17 14:17:31;;;;;;;1.25;0.70;;;;;;;;;;5051671;28;20044;-71
2022/04/17 14:19:56;;;;;;;1.10;0.90;;;;;;;;;;5051732;28;20521;-73
2022/04/17 14:22:24;;;;;;;1.88;0.80;;;;;;;;;;5051416;28;20386;-72
2022/04/17 14:24:51;;;;;;;0.98;0.82;;;;;;;;;;5050239;28;20035;-71
2022/04/17 14:27:16;;;;;;;0.73;0.60;;;;;;;;;;5032186;28;20399;-71
2022/04/17 14:29:42;;;;;;;1.50;0.80;;;;;;;;;;5032091;28;20035;-70
2022/04/17 14:32:08;;;;;;;0.70;0.70;;;;;;;;;;5042805;28;20043;-71
2022/04/17 14:34:33;;;;;;;1.35;0.77;;;;;;;;;;5051683;28;20032;-72
2022/04/17 14:36:58;;;;;;;1.02;0.70;;;;;;;;;;5051698;28;20021;-72
2022/04/17 14:39:23;;;;;;;0.88;0.70;;;;;;;;;;5070236;22;21136;-75
2022/04/17 14:41:49;;;;;;;0.80;0.80;;;;;;;;;;5032290;28;20059;-76
2022/04/17 14:44:14;;;;;;;1.83;0.63;;;;;;;;;;5031861;28;20041;-77
2022/04/17 14:46:39;;;;;;;1.70;0.70;;;;;;;;;;5031936;28;20025;-76
2022/04/17 14:49:05;;;;;;;2.80;0.80;;;;;;;;;;5030774;28;20420;-77
2022/04/17 14:51:30;;;;;;;0.60;0.60;;;;;;;;;;5031673;28;20017;-75
2022/04/17 14:53:55;;;;;;;0.93;0.82;;;;;;;;;;5032311;28;20027;-78
2022/04/17 14:56:21;;;;;;;1.67;0.80;;;;;;;;;;5030991;28;20051;-75